sensor_id;sensor_type;location;lat;lon;timestamp;P1;durP1;ratioP1;P2;durP2;ratioP2
18983;SDS011;9626;52.552;13.436;2023-06-24T00:01:49;12.33;;;9.30;;
18983;SDS011;9626;52.552;13.436;2023-06-24T00:04:15;10.27;;;9.03;;
18983;SDS011;9626;52.552;13.436;2023-06-24T00:06:42;14.47;;;9.13;;
18983;SDS011;9626;52.552;13.436;2023-06-24T00:09:08;11.93;;;9.27;;
18983;SDS011;9626;52.552;13.436;2023-06-24T00:11:34;12.33;;;9.43;;
18983;SDS011;9626;52.552;13.436;2023-06-24T00:14:00;12.73;;;9.57;;
18983;SDS011;9626;52.552;13.436;2023-06-24T00:16:26;10.50;;;9.30;;
18983;SDS011;9626;52.552;13.436;2023-06-24T00:18:55;13.43;;;9.17;;
18983;SDS011;9626;52.552;13.436;2023-06-24T00:21:27;12.60;;;10.17;;
18983;SDS011;9626;52.552;13.436;2023-06-24T00:23:57;12.30;;;9.43;;
18983;SDS011;9626;52.552;13.436;2023-06-24T00:26:24;12.93;;;9.80;;
18983;SDS011;9626;52.552;13.436;2023-06-24T00:28:51;11.73;;;9.75;;
18983;SDS011;9626;52.552;13.436;2023-06-24T00:31:17;14.83;;;9.97;;
18983;SDS011;9626;52.552;13.436;2023-06-24T00:33:44;12.43;;;10.53;;
18983;SDS011;9626;52.552;13.436;2023-06-24T00:36:10;12.90;;;10.73;;
18983;SDS011;9626;52.552;13.436;2023-06-24T00:38:37;14.67;;;10.60;;
18983;SDS011;9626;52.552;13.436;2023-06-24T00:41:04;12.00;;;10.60;;
18983;SDS011;9626;52.552;13.436;2023-06-24T00:43:31;15.53;;;11.07;;
18983;SDS011;9626;52.552;13.436;2023-06-24T00:45:57;14.67;;;11.93;;
18983;SDS011;9626;52.552;13.436;2023-06-24T00:48:23;14.27;;;11.17;;
18983;SDS011;9626;52.552;13.436;2023-06-24T00:50:50;13.70;;;11.67;;
18983;SDS011;9626;52.552;13.436;2023-06-24T00:53:17;14.33;;;11.87;;
18983;SDS011;9626;52.552;13.436;2023-06-24T00:55:44;13.40;;;12.00;;
18983;SDS011;9626;52.552;13.436;2023-06-24T00:58:11;13.30;;;11.70;;
18983;SDS011;9626;52.552;13.436;2023-06-24T01:00:42;14.23;;;12.73;;
18983;SDS011;9626;52.552;13.436;2023-06-24T01:03:11;14.53;;;12.30;;
18983;SDS011;9626;52.552;13.436;2023-06-24T01:05:42;15.50;;;12.80;;
18983;SDS011;9626;52.552;13.436;2023-06-24T01:08:10;15.17;;;12.20;;
18983;SDS011;9626;52.552;13.436;2023-06-24T01:10:41;13.90;;;12.50;;
18983;SDS011;9626;52.552;13.436;2023-06-24T01:13:08;13.13;;;11.53;;
18983;SDS011;9626;52.552;13.436;2023-06-24T01:15:34;16.17;;;12.27;;
18983;SDS011;9626;52.552;13.436;2023-06-24T01:18:09;13.63;;;12.23;;
18983;SDS011;9626;52.552;13.436;2023-06-24T01:20:41;14.30;;;11.97;;
18983;SDS011;9626;52.552;13.436;2023-06-24T01:29:01;19.17;;;12.17;;
18983;SDS011;9626;52.552;13.436;2023-06-24T01:37:34;12.67;;;11.33;;
18983;SDS011;9626;52.552;13.436;2023-06-24T01:42:43;15.17;;;11.77;;
18983;SDS011;9626;52.552;13.436;2023-06-24T01:45:16;13.13;;;11.07;;
18983;SDS011;9626;52.552;13.436;2023-06-24T01:47:47;16.37;;;11.57;;
18983;SDS011;9626;52.552;13.436;2023-06-24T01:50:16;15.63;;;11.60;;
18983;SDS011;9626;52.552;13.436;2023-06-24T01:52:47;14.43;;;11.33;;
18983;SDS011;9626;52.552;13.436;2023-06-24T01:55:16;17.53;;;10.90;;
18983;SDS011;9626;52.552;13.436;2023-06-24T01:57:45;12.33;;;11.10;;
18983;SDS011;9626;52.552;13.436;2023-06-24T02:00:13;13.40;;;11.93;;
18983;SDS011;9626;52.552;13.436;2023-06-24T02:02:41;14.23;;;11.80;;
18983;SDS011;9626;52.552;13.436;2023-06-24T02:05:07;12.80;;;11.33;;
18983;SDS011;9626;52.552;13.436;2023-06-24T02:07:35;12.93;;;10.87;;
18983;SDS011;9626;52.552;13.436;2023-06-24T02:10:03;14.33;;;11.40;;
18983;SDS011;9626;52.552;13.436;2023-06-24T02:12:29;13.33;;;11.67;;
18983;SDS011;9626;52.552;13.436;2023-06-24T02:14:56;14.77;;;11.87;;
18983;SDS011;9626;52.552;13.436;2023-06-24T02:17:24;13.03;;;11.40;;
18983;SDS011;9626;52.552;13.436;2023-06-24T02:19:51;13.50;;;12.10;;
18983;SDS011;9626;52.552;13.436;2023-06-24T02:22:19;13.63;;;12.20;;
18983;SDS011;9626;52.552;13.436;2023-06-24T02:24:47;12.80;;;10.73;;
18983;SDS011;9626;52.552;13.436;2023-06-24T02:27:30;14.03;;;11.43;;
18983;SDS011;9626;52.552;13.436;2023-06-24T02:29:57;13.13;;;11.83;;
18983;SDS011;9626;52.552;13.436;2023-06-24T02:32:25;12.40;;;11.07;;
18983;SDS011;9626;52.552;13.436;2023-06-24T02:34:51;12.63;;;11.33;;
18983;SDS011;9626;52.552;13.436;2023-06-24T02:37:17;12.63;;;10.97;;
18983;SDS011;9626;52.552;13.436;2023-06-24T02:39:43;13.40;;;10.43;;
18983;SDS011;9626;52.552;13.436;2023-06-24T02:42:10;13.73;;;11.37;;
18983;SDS011;9626;52.552;13.436;2023-06-24T02:44:38;11.70;;;10.50;;
18983;SDS011;9626;52.552;13.436;2023-06-24T02:47:06;16.00;;;10.73;;
18983;SDS011;9626;52.552;13.436;2023-06-24T02:49:37;13.93;;;10.13;;
18983;SDS011;9626;52.552;13.436;2023-06-24T02:52:04;11.57;;;10.33;;
18983;SDS011;9626;52.552;13.436;2023-06-24T02:54:31;12.20;;;10.23;;
18983;SDS011;9626;52.552;13.436;2023-06-24T02:56:58;15.40;;;9.93;;
18983;SDS011;9626;52.552;13.436;2023-06-24T02:59:25;11.07;;;9.90;;
18983;SDS011;9626;52.552;13.436;2023-06-24T03:01:52;14.03;;;10.70;;
18983;SDS011;9626;52.552;13.436;2023-06-24T03:04:19;12.27;;;10.03;;
18983;SDS011;9626;52.552;13.436;2023-06-24T03:06:46;11.50;;;9.20;;
18983;SDS011;9626;52.552;13.436;2023-06-24T03:09:15;10.83;;;9.47;;
18983;SDS011;9626;52.552;13.436;2023-06-24T03:11:42;12.00;;;9.73;;
18983;SDS011;9626;52.552;13.436;2023-06-24T03:14:10;14.27;;;10.93;;
18983;SDS011;9626;52.552;13.436;2023-06-24T03:16:36;12.73;;;9.93;;
18983;SDS011;9626;52.552;13.436;2023-06-24T03:19:04;12.53;;;10.07;;
18983;SDS011;9626;52.552;13.436;2023-06-24T03:21:30;11.57;;;9.90;;
18983;SDS011;9626;52.552;13.436;2023-06-24T03:23:56;14.23;;;10.23;;
18983;SDS011;9626;52.552;13.436;2023-06-24T03:26:25;12.33;;;10.03;;
18983;SDS011;9626;52.552;13.436;2023-06-24T03:28:58;11.10;;;9.50;;
18983;SDS011;9626;52.552;13.436;2023-06-24T03:31:24;16.00;;;9.90;;
18983;SDS011;9626;52.552;13.436;2023-06-24T03:33:50;11.73;;;9.60;;
18983;SDS011;9626;52.552;13.436;2023-06-24T03:36:16;11.97;;;9.80;;
18983;SDS011;9626;52.552;13.436;2023-06-24T03:38:43;14.03;;;9.23;;
18983;SDS011;9626;52.552;13.436;2023-06-24T03:41:09;13.63;;;10.07;;
18983;SDS011;9626;52.552;13.436;2023-06-24T03:43:35;10.93;;;9.83;;
18983;SDS011;9626;52.552;13.436;2023-06-24T03:46:01;11.20;;;9.77;;
18983;SDS011;9626;52.552;13.436;2023-06-24T03:48:27;11.43;;;9.43;;
18983;SDS011;9626;52.552;13.436;2023-06-24T03:50:53;11.53;;;9.23;;
18983;SDS011;9626;52.552;13.436;2023-06-24T03:53:20;10.60;;;9.57;;
18983;SDS011;9626;52.552;13.436;2023-06-24T03:55:46;13.10;;;9.93;;
18983;SDS011;9626;52.552;13.436;2023-06-24T03:58:12;12.00;;;9.60;;
18983;SDS011;9626;52.552;13.436;2023-06-24T04:00:39;10.23;;;9.23;;
18983;SDS011;9626;52.552;13.436;2023-06-24T04:03:06;12.50;;;9.50;;
18983;SDS011;9626;52.552;13.436;2023-06-24T04:05:33;12.87;;;9.27;;
18983;SDS011;9626;52.552;13.436;2023-06-24T04:07:59;13.00;;;10.13;;
18983;SDS011;9626;52.552;13.436;2023-06-24T04:10:25;10.80;;;9.70;;
18983;SDS011;9626;52.552;13.436;2023-06-24T04:12:51;10.87;;;9.77;;
18983;SDS011;9626;52.552;13.436;2023-06-24T04:15:17;12.70;;;9.93;;
18983;SDS011;9626;52.552;13.436;2023-06-24T04:17:43;10.53;;;9.43;;
18983;SDS011;9626;52.552;13.436;2023-06-24T04:20:10;11.97;;;9.30;;
18983;SDS011;9626;52.552;13.436;2023-06-24T04:22:36;10.93;;;8.90;;
18983;SDS011;9626;52.552;13.436;2023-06-24T04:25:04;11.33;;;9.07;;
18983;SDS011;9626;52.552;13.436;2023-06-24T04:27:32;11.93;;;10.30;;
18983;SDS011;9626;52.552;13.436;2023-06-24T04:30:01;9.97;;;8.87;;
18983;SDS011;9626;52.552;13.436;2023-06-24T04:32:28;12.53;;;9.77;;
18983;SDS011;9626;52.552;13.436;2023-06-24T04:34:54;11.27;;;9.50;;
18983;SDS011;9626;52.552;13.436;2023-06-24T04:37:20;11.20;;;9.57;;
18983;SDS011;9626;52.552;13.436;2023-06-24T04:39:55;10.03;;;9.03;;
18983;SDS011;9626;52.552;13.436;2023-06-24T04:42:22;13.83;;;9.40;;
18983;SDS011;9626;52.552;13.436;2023-06-24T04:44:48;12.03;;;9.53;;
18983;SDS011;9626;52.552;13.436;2023-06-24T04:47:18;11.70;;;9.90;;
18983;SDS011;9626;52.552;13.436;2023-06-24T04:49:44;13.03;;;9.93;;
18983;SDS011;9626;52.552;13.436;2023-06-24T04:52:10;12.73;;;9.63;;
18983;SDS011;9626;52.552;13.436;2023-06-24T04:54:37;11.47;;;9.93;;
18983;SDS011;9626;52.552;13.436;2023-06-24T04:57:06;13.30;;;9.60;;
18983;SDS011;9626;52.552;13.436;2023-06-24T04:59:34;16.60;;;10.03;;
18983;SDS011;9626;52.552;13.436;2023-06-24T05:02:00;12.57;;;10.10;;
18983;SDS011;9626;52.552;13.436;2023-06-24T05:04:26;13.20;;;9.83;;
18983;SDS011;9626;52.552;13.436;2023-06-24T05:06:52;11.23;;;9.50;;
18983;SDS011;9626;52.552;13.436;2023-06-24T05:09:18;13.10;;;9.20;;
18983;SDS011;9626;52.552;13.436;2023-06-24T05:11:44;10.30;;;9.17;;
18983;SDS011;9626;52.552;13.436;2023-06-24T05:14:11;12.80;;;9.97;;
18983;SDS011;9626;52.552;13.436;2023-06-24T05:16:55;11.63;;;10.03;;
18983;SDS011;9626;52.552;13.436;2023-06-24T05:19:21;12.53;;;10.27;;
18983;SDS011;9626;52.552;13.436;2023-06-24T05:22:05;18.10;;;9.13;;
18983;SDS011;9626;52.552;13.436;2023-06-24T05:24:32;12.07;;;9.17;;
18983;SDS011;9626;52.552;13.436;2023-06-24T05:27:16;11.00;;;8.90;;
18983;SDS011;9626;52.552;13.436;2023-06-24T05:30:01;11.43;;;10.03;;
18983;SDS011;9626;52.552;13.436;2023-06-24T05:32:28;13.50;;;10.13;;
18983;SDS011;9626;52.552;13.436;2023-06-24T05:35:12;13.67;;;9.20;;
18983;SDS011;9626;52.552;13.436;2023-06-24T05:37:56;13.70;;;8.77;;
18983;SDS011;9626;52.552;13.436;2023-06-24T05:40:41;14.10;;;9.37;;
18983;SDS011;9626;52.552;13.436;2023-06-24T05:43:13;15.70;;;8.40;;
18983;SDS011;9626;52.552;13.436;2023-06-24T05:45:39;11.90;;;9.40;;
18983;SDS011;9626;52.552;13.436;2023-06-24T05:48:23;9.67;;;8.20;;
18983;SDS011;9626;52.552;13.436;2023-06-24T05:51:08;11.97;;;9.30;;
18983;SDS011;9626;52.552;13.436;2023-06-24T05:53:52;10.63;;;9.30;;
18983;SDS011;9626;52.552;13.436;2023-06-24T05:56:19;10.60;;;8.80;;
18983;SDS011;9626;52.552;13.436;2023-06-24T05:59:04;9.97;;;8.60;;
18983;SDS011;9626;52.552;13.436;2023-06-24T06:01:49;11.70;;;9.07;;
18983;SDS011;9626;52.552;13.436;2023-06-24T06:04:15;13.10;;;8.83;;
18983;SDS011;9626;52.552;13.436;2023-06-24T06:06:59;12.53;;;9.60;;
18983;SDS011;9626;52.552;13.436;2023-06-24T06:09:44;17.07;;;9.47;;
18983;SDS011;9626;52.552;13.436;2023-06-24T06:12:28;10.73;;;9.30;;
18983;SDS011;9626;52.552;13.436;2023-06-24T06:15:12;12.53;;;7.80;;
18983;SDS011;9626;52.552;13.436;2023-06-24T06:17:57;9.97;;;8.70;;
18983;SDS011;9626;52.552;13.436;2023-06-24T06:20:41;9.67;;;7.97;;
18983;SDS011;9626;52.552;13.436;2023-06-24T06:23:25;11.63;;;8.37;;
18983;SDS011;9626;52.552;13.436;2023-06-24T06:26:10;11.73;;;8.80;;
18983;SDS011;9626;52.552;13.436;2023-06-24T06:28:55;12.50;;;7.70;;
18983;SDS011;9626;52.552;13.436;2023-06-24T06:31:39;10.57;;;7.47;;
18983;SDS011;9626;52.552;13.436;2023-06-24T06:34:05;11.00;;;8.83;;
18983;SDS011;9626;52.552;13.436;2023-06-24T06:36:38;11.47;;;8.03;;
18983;SDS011;9626;52.552;13.436;2023-06-24T06:39:04;11.63;;;8.50;;
18983;SDS011;9626;52.552;13.436;2023-06-24T06:41:49;10.60;;;8.00;;
18983;SDS011;9626;52.552;13.436;2023-06-24T06:44:15;10.63;;;7.70;;
18983;SDS011;9626;52.552;13.436;2023-06-24T06:46:41;9.50;;;7.47;;
18983;SDS011;9626;52.552;13.436;2023-06-24T06:49:10;10.50;;;7.43;;
18983;SDS011;9626;52.552;13.436;2023-06-24T06:51:55;9.13;;;6.93;;
18983;SDS011;9626;52.552;13.436;2023-06-24T06:54:39;8.50;;;7.30;;
18983;SDS011;9626;52.552;13.436;2023-06-24T06:57:05;8.63;;;6.97;;
18983;SDS011;9626;52.552;13.436;2023-06-24T06:59:32;9.20;;;7.40;;
18983;SDS011;9626;52.552;13.436;2023-06-24T07:01:58;11.80;;;7.17;;
18983;SDS011;9626;52.552;13.436;2023-06-24T07:04:24;10.20;;;7.30;;
18983;SDS011;9626;52.552;13.436;2023-06-24T07:06:50;10.00;;;6.90;;
18983;SDS011;9626;52.552;13.436;2023-06-24T07:09:16;10.37;;;7.10;;
18983;SDS011;9626;52.552;13.436;2023-06-24T07:11:44;8.40;;;7.07;;
18983;SDS011;9626;52.552;13.436;2023-06-24T07:14:10;9.53;;;7.23;;
18983;SDS011;9626;52.552;13.436;2023-06-24T07:16:36;8.63;;;7.10;;
18983;SDS011;9626;52.552;13.436;2023-06-24T07:19:02;10.13;;;6.87;;
18983;SDS011;9626;52.552;13.436;2023-06-24T07:21:32;12.18;;;6.28;;
18983;SDS011;9626;52.552;13.436;2023-06-24T07:24:16;9.82;;;6.45;;
18983;SDS011;9626;52.552;13.436;2023-06-24T07:27:01;9.00;;;6.43;;
18983;SDS011;9626;52.552;13.436;2023-06-24T07:29:27;7.93;;;6.40;;
18983;SDS011;9626;52.552;13.436;2023-06-24T07:31:54;8.70;;;6.40;;
18983;SDS011;9626;52.552;13.436;2023-06-24T07:34:20;7.53;;;6.47;;
18983;SDS011;9626;52.552;13.436;2023-06-24T07:36:46;9.13;;;6.22;;
18983;SDS011;9626;52.552;13.436;2023-06-24T07:39:12;7.05;;;6.20;;
18983;SDS011;9626;52.552;13.436;2023-06-24T07:41:56;6.73;;;6.03;;
18983;SDS011;9626;52.552;13.436;2023-06-24T07:44:22;7.87;;;5.77;;
18983;SDS011;9626;52.552;13.436;2023-06-24T07:46:48;6.03;;;5.20;;
18983;SDS011;9626;52.552;13.436;2023-06-24T07:49:17;8.30;;;5.70;;
18983;SDS011;9626;52.552;13.436;2023-06-24T07:52:02;6.47;;;4.90;;
18983;SDS011;9626;52.552;13.436;2023-06-24T07:54:43;5.43;;;4.70;;
18983;SDS011;9626;52.552;13.436;2023-06-24T07:57:27;9.27;;;4.97;;
18983;SDS011;9626;52.552;13.436;2023-06-24T08:00:12;5.70;;;5.10;;
18983;SDS011;9626;52.552;13.436;2023-06-24T08:02:57;6.05;;;4.68;;
18983;SDS011;9626;52.552;13.436;2023-06-24T08:05:23;8.70;;;5.27;;
18983;SDS011;9626;52.552;13.436;2023-06-24T08:08:08;7.70;;;5.10;;
18983;SDS011;9626;52.552;13.436;2023-06-24T08:10:34;6.38;;;5.47;;
18983;SDS011;9626;52.552;13.436;2023-06-24T08:13:19;7.37;;;5.20;;
18983;SDS011;9626;52.552;13.436;2023-06-24T08:16:03;7.45;;;5.07;;
18983;SDS011;9626;52.552;13.436;2023-06-24T08:18:29;6.70;;;5.32;;
18983;SDS011;9626;52.552;13.436;2023-06-24T08:21:14;10.07;;;5.40;;
18983;SDS011;9626;52.552;13.436;2023-06-24T08:23:40;5.30;;;4.80;;
18983;SDS011;9626;52.552;13.436;2023-06-24T08:26:06;6.18;;;5.18;;
18983;SDS011;9626;52.552;13.436;2023-06-24T08:28:48;10.45;;;4.90;;
18983;SDS011;9626;52.552;13.436;2023-06-24T08:31:14;5.80;;;4.75;;
18983;SDS011;9626;52.552;13.436;2023-06-24T08:33:43;7.45;;;4.65;;
18983;SDS011;9626;52.552;13.436;2023-06-24T08:36:11;5.85;;;4.75;;
18983;SDS011;9626;52.552;13.436;2023-06-24T08:38:37;6.78;;;5.18;;
18983;SDS011;9626;52.552;13.436;2023-06-24T08:41:03;5.18;;;4.38;;
18983;SDS011;9626;52.552;13.436;2023-06-24T08:43:29;6.25;;;4.95;;
18983;SDS011;9626;52.552;13.436;2023-06-24T08:45:55;6.88;;;4.95;;
18983;SDS011;9626;52.552;13.436;2023-06-24T08:48:21;7.45;;;4.70;;
18983;SDS011;9626;52.552;13.436;2023-06-24T08:50:52;5.43;;;4.45;;
18983;SDS011;9626;52.552;13.436;2023-06-24T08:53:42;5.10;;;4.10;;
18983;SDS011;9626;52.552;13.436;2023-06-24T08:56:27;11.23;;;4.18;;
18983;SDS011;9626;52.552;13.436;2023-06-24T08:58:55;4.95;;;3.65;;
18983;SDS011;9626;52.552;13.436;2023-06-24T09:01:21;6.20;;;4.30;;
18983;SDS011;9626;52.552;13.436;2023-06-24T09:03:48;5.10;;;3.92;;
18983;SDS011;9626;52.552;13.436;2023-06-24T09:06:14;4.15;;;3.78;;
18983;SDS011;9626;52.552;13.436;2023-06-24T09:08:40;6.88;;;4.25;;
18983;SDS011;9626;52.552;13.436;2023-06-24T09:11:08;5.15;;;4.05;;
18983;SDS011;9626;52.552;13.436;2023-06-24T09:13:34;7.50;;;3.80;;
18983;SDS011;9626;52.552;13.436;2023-06-24T09:16:13;5.85;;;3.70;;
18983;SDS011;9626;52.552;13.436;2023-06-24T09:18:40;6.53;;;3.92;;
18983;SDS011;9626;52.552;13.436;2023-06-24T09:21:06;11.05;;;4.00;;
18983;SDS011;9626;52.552;13.436;2023-06-24T09:23:36;5.10;;;4.40;;
18983;SDS011;9626;52.552;13.436;2023-06-24T09:26:03;5.88;;;3.90;;
18983;SDS011;9626;52.552;13.436;2023-06-24T09:28:48;4.45;;;3.95;;
18983;SDS011;9626;52.552;13.436;2023-06-24T09:31:17;4.65;;;3.60;;
18983;SDS011;9626;52.552;13.436;2023-06-24T09:34:02;10.32;;;4.45;;
18983;SDS011;9626;52.552;13.436;2023-06-24T09:36:28;5.20;;;4.15;;
18983;SDS011;9626;52.552;13.436;2023-06-24T09:38:54;6.13;;;4.03;;
18983;SDS011;9626;52.552;13.436;2023-06-24T09:41:41;5.95;;;4.00;;
18983;SDS011;9626;52.552;13.436;2023-06-24T09:44:08;6.40;;;4.10;;
18983;SDS011;9626;52.552;13.436;2023-06-24T09:46:55;5.15;;;3.67;;
18983;SDS011;9626;52.552;13.436;2023-06-24T09:49:23;6.75;;;4.10;;
18983;SDS011;9626;52.552;13.436;2023-06-24T09:52:07;11.98;;;4.28;;
18983;SDS011;9626;52.552;13.436;2023-06-24T09:54:34;6.10;;;3.45;;
18983;SDS011;9626;52.552;13.436;2023-06-24T09:57:02;4.65;;;3.70;;
18983;SDS011;9626;52.552;13.436;2023-06-24T09:59:48;4.10;;;3.70;;
18983;SDS011;9626;52.552;13.436;2023-06-24T10:02:32;6.40;;;3.88;;
18983;SDS011;9626;52.552;13.436;2023-06-24T10:04:59;4.57;;;3.53;;
18983;SDS011;9626;52.552;13.436;2023-06-24T10:07:45;4.15;;;3.30;;
18983;SDS011;9626;52.552;13.436;2023-06-24T10:10:11;3.75;;;3.30;;
18983;SDS011;9626;52.552;13.436;2023-06-24T10:12:38;6.85;;;3.65;;
18983;SDS011;9626;52.552;13.436;2023-06-24T10:15:04;3.50;;;3.20;;
18983;SDS011;9626;52.552;13.436;2023-06-24T10:17:31;4.57;;;3.47;;
18983;SDS011;9626;52.552;13.436;2023-06-24T10:19:57;4.93;;;2.95;;
18983;SDS011;9626;52.552;13.436;2023-06-24T10:22:23;5.10;;;3.45;;
18983;SDS011;9626;52.552;13.436;2023-06-24T10:24:51;4.50;;;3.70;;
18983;SDS011;9626;52.552;13.436;2023-06-24T10:27:19;4.18;;;3.40;;
18983;SDS011;9626;52.552;13.436;2023-06-24T10:29:50;4.38;;;3.05;;
18983;SDS011;9626;52.552;13.436;2023-06-24T10:32:21;6.25;;;3.65;;
18983;SDS011;9626;52.552;13.436;2023-06-24T10:34:55;5.75;;;3.72;;
18983;SDS011;9626;52.552;13.436;2023-06-24T10:37:30;5.43;;;3.45;;
18983;SDS011;9626;52.552;13.436;2023-06-24T10:40:00;5.72;;;3.88;;
18983;SDS011;9626;52.552;13.436;2023-06-24T10:44:57;6.07;;;4.05;;
18983;SDS011;9626;52.552;13.436;2023-06-24T10:47:24;3.95;;;3.20;;
18983;SDS011;9626;52.552;13.436;2023-06-24T10:49:52;7.47;;;3.97;;
18983;SDS011;9626;52.552;13.436;2023-06-24T10:52:19;4.93;;;3.33;;
18983;SDS011;9626;52.552;13.436;2023-06-24T10:54:49;4.93;;;3.50;;
18983;SDS011;9626;52.552;13.436;2023-06-24T10:57:16;6.15;;;4.45;;
18983;SDS011;9626;52.552;13.436;2023-06-24T10:59:48;5.50;;;4.55;;
18983;SDS011;9626;52.552;13.436;2023-06-24T11:02:15;6.35;;;3.53;;
18983;SDS011;9626;52.552;13.436;2023-06-24T11:04:43;7.55;;;4.65;;
18983;SDS011;9626;52.552;13.436;2023-06-24T11:07:10;5.10;;;3.92;;
18983;SDS011;9626;52.552;13.436;2023-06-24T11:09:37;4.97;;;3.38;;
18983;SDS011;9626;52.552;13.436;2023-06-24T11:12:03;6.38;;;3.45;;
18983;SDS011;9626;52.552;13.436;2023-06-24T11:14:48;5.25;;;3.65;;
18983;SDS011;9626;52.552;13.436;2023-06-24T11:17:14;5.07;;;4.07;;
18983;SDS011;9626;52.552;13.436;2023-06-24T11:19:40;8.68;;;4.00;;
18983;SDS011;9626;52.552;13.436;2023-06-24T11:22:07;7.15;;;3.97;;
18983;SDS011;9626;52.552;13.436;2023-06-24T11:24:34;6.82;;;4.57;;
18983;SDS011;9626;52.552;13.436;2023-06-24T11:27:01;4.30;;;3.90;;
18983;SDS011;9626;52.552;13.436;2023-06-24T11:29:31;4.45;;;3.90;;
18983;SDS011;9626;52.552;13.436;2023-06-24T11:32:00;4.90;;;4.00;;
18983;SDS011;9626;52.552;13.436;2023-06-24T11:34:28;6.10;;;3.92;;
18983;SDS011;9626;52.552;13.436;2023-06-24T11:36:55;5.03;;;4.00;;
18983;SDS011;9626;52.552;13.436;2023-06-24T11:39:22;3.78;;;3.47;;
18983;SDS011;9626;52.552;13.436;2023-06-24T11:41:52;7.53;;;3.97;;
18983;SDS011;9626;52.552;13.436;2023-06-24T11:44:19;5.03;;;3.75;;
18983;SDS011;9626;52.552;13.436;2023-06-24T11:46:46;5.68;;;3.20;;
18983;SDS011;9626;52.552;13.436;2023-06-24T11:49:13;8.43;;;3.70;;
18983;SDS011;9626;52.552;13.436;2023-06-24T11:51:47;4.35;;;3.60;;
18983;SDS011;9626;52.552;13.436;2023-06-24T11:54:19;6.53;;;3.67;;
18983;SDS011;9626;52.552;13.436;2023-06-24T11:56:50;7.88;;;4.35;;
18983;SDS011;9626;52.552;13.436;2023-06-24T11:59:21;5.05;;;3.47;;
18983;SDS011;9626;52.552;13.436;2023-06-24T12:01:52;4.43;;;3.70;;
18983;SDS011;9626;52.552;13.436;2023-06-24T12:04:20;4.07;;;3.67;;
18983;SDS011;9626;52.552;13.436;2023-06-24T12:06:47;3.92;;;3.42;;
18983;SDS011;9626;52.552;13.436;2023-06-24T12:09:13;4.90;;;3.25;;
18983;SDS011;9626;52.552;13.436;2023-06-24T12:11:39;10.18;;;3.15;;
18983;SDS011;9626;52.552;13.436;2023-06-24T12:14:05;5.47;;;3.38;;
18983;SDS011;9626;52.552;13.436;2023-06-24T12:16:32;5.53;;;3.13;;
18983;SDS011;9626;52.552;13.436;2023-06-24T12:18:58;7.00;;;3.10;;
18983;SDS011;9626;52.552;13.436;2023-06-24T12:21:24;4.32;;;3.50;;
18983;SDS011;9626;52.552;13.436;2023-06-24T12:23:50;8.02;;;4.68;;
18983;SDS011;9626;52.552;13.436;2023-06-24T12:26:16;5.32;;;3.15;;
18983;SDS011;9626;52.552;13.436;2023-06-24T12:28:42;4.50;;;3.42;;
18983;SDS011;9626;52.552;13.436;2023-06-24T12:31:09;4.18;;;3.38;;
18983;SDS011;9626;52.552;13.436;2023-06-24T12:33:35;6.25;;;3.50;;
18983;SDS011;9626;52.552;13.436;2023-06-24T12:36:01;5.70;;;3.05;;
18983;SDS011;9626;52.552;13.436;2023-06-24T12:38:27;5.13;;;4.13;;
18983;SDS011;9626;52.552;13.436;2023-06-24T12:40:53;6.45;;;3.10;;
18983;SDS011;9626;52.552;13.436;2023-06-24T12:43:19;4.85;;;3.50;;
18983;SDS011;9626;52.552;13.436;2023-06-24T12:45:45;3.83;;;3.08;;
18983;SDS011;9626;52.552;13.436;2023-06-24T12:48:12;3.40;;;3.10;;
18983;SDS011;9626;52.552;13.436;2023-06-24T12:50:39;6.18;;;3.72;;
18983;SDS011;9626;52.552;13.436;2023-06-24T12:53:05;8.68;;;3.90;;
18983;SDS011;9626;52.552;13.436;2023-06-24T12:55:31;5.55;;;3.63;;
18983;SDS011;9626;52.552;13.436;2023-06-24T12:57:57;6.30;;;3.60;;
18983;SDS011;9626;52.552;13.436;2023-06-24T13:00:23;4.00;;;3.55;;
18983;SDS011;9626;52.552;13.436;2023-06-24T13:02:50;6.90;;;3.83;;
18983;SDS011;9626;52.552;13.436;2023-06-24T13:05:16;4.43;;;3.35;;
18983;SDS011;9626;52.552;13.436;2023-06-24T13:07:43;5.47;;;3.70;;
18983;SDS011;9626;52.552;13.436;2023-06-24T13:10:10;6.85;;;3.70;;
18983;SDS011;9626;52.552;13.436;2023-06-24T13:12:37;4.45;;;3.75;;
18983;SDS011;9626;52.552;13.436;2023-06-24T13:15:04;4.30;;;3.72;;
18983;SDS011;9626;52.552;13.436;2023-06-24T13:17:31;3.83;;;3.20;;
18983;SDS011;9626;52.552;13.436;2023-06-24T13:19:58;4.05;;;3.45;;
18983;SDS011;9626;52.552;13.436;2023-06-24T13:22:24;5.10;;;3.70;;
18983;SDS011;9626;52.552;13.436;2023-06-24T13:24:50;4.25;;;3.85;;
18983;SDS011;9626;52.552;13.436;2023-06-24T13:27:16;5.63;;;3.75;;
18983;SDS011;9626;52.552;13.436;2023-06-24T13:29:42;4.25;;;3.60;;
18983;SDS011;9626;52.552;13.436;2023-06-24T13:32:09;6.10;;;3.90;;
18983;SDS011;9626;52.552;13.436;2023-06-24T13:34:35;5.57;;;3.35;;
18983;SDS011;9626;52.552;13.436;2023-06-24T13:37:01;3.92;;;3.50;;
18983;SDS011;9626;52.552;13.436;2023-06-24T13:39:27;5.55;;;3.55;;
18983;SDS011;9626;52.552;13.436;2023-06-24T13:41:53;4.38;;;3.38;;
18983;SDS011;9626;52.552;13.436;2023-06-24T13:44:19;6.25;;;3.63;;
18983;SDS011;9626;52.552;13.436;2023-06-24T13:46:45;5.95;;;3.42;;
18983;SDS011;9626;52.552;13.436;2023-06-24T13:49:11;4.93;;;3.88;;
18983;SDS011;9626;52.552;13.436;2023-06-24T13:51:38;4.78;;;3.28;;
18983;SDS011;9626;52.552;13.436;2023-06-24T13:54:05;4.35;;;3.58;;
18983;SDS011;9626;52.552;13.436;2023-06-24T13:56:31;6.03;;;4.00;;
18983;SDS011;9626;52.552;13.436;2023-06-24T13:58:57;6.68;;;3.53;;
18983;SDS011;9626;52.552;13.436;2023-06-24T14:01:23;3.40;;;3.10;;
18983;SDS011;9626;52.552;13.436;2023-06-24T14:03:49;5.40;;;3.78;;
18983;SDS011;9626;52.552;13.436;2023-06-24T14:06:18;4.68;;;3.80;;
18983;SDS011;9626;52.552;13.436;2023-06-24T14:08:45;4.60;;;3.53;;
18983;SDS011;9626;52.552;13.436;2023-06-24T14:11:12;4.68;;;3.47;;
18983;SDS011;9626;52.552;13.436;2023-06-24T14:13:40;4.20;;;3.80;;
18983;SDS011;9626;52.552;13.436;2023-06-24T14:16:07;5.18;;;3.58;;
18983;SDS011;9626;52.552;13.436;2023-06-24T14:18:33;4.03;;;3.40;;
18983;SDS011;9626;52.552;13.436;2023-06-24T14:21:00;3.47;;;2.95;;
18983;SDS011;9626;52.552;13.436;2023-06-24T14:23:28;5.60;;;3.38;;
18983;SDS011;9626;52.552;13.436;2023-06-24T14:25:54;3.78;;;3.47;;
18983;SDS011;9626;52.552;13.436;2023-06-24T14:28:20;4.55;;;3.50;;
18983;SDS011;9626;52.552;13.436;2023-06-24T14:30:47;5.30;;;3.90;;
18983;SDS011;9626;52.552;13.436;2023-06-24T14:33:13;5.00;;;4.35;;
18983;SDS011;9626;52.552;13.436;2023-06-24T14:35:40;6.10;;;3.83;;
18983;SDS011;9626;52.552;13.436;2023-06-24T14:38:07;6.45;;;3.45;;
18983;SDS011;9626;52.552;13.436;2023-06-24T14:40:33;4.43;;;3.65;;
18983;SDS011;9626;52.552;13.436;2023-06-24T14:42:59;4.60;;;3.40;;
18983;SDS011;9626;52.552;13.436;2023-06-24T14:45:26;3.65;;;3.35;;
18983;SDS011;9626;52.552;13.436;2023-06-24T14:47:52;4.18;;;3.78;;
18983;SDS011;9626;52.552;13.436;2023-06-24T14:50:18;4.18;;;3.75;;
18983;SDS011;9626;52.552;13.436;2023-06-24T14:52:45;5.57;;;4.20;;
18983;SDS011;9626;52.552;13.436;2023-06-24T14:55:11;3.65;;;3.30;;
18983;SDS011;9626;52.552;13.436;2023-06-24T14:57:37;3.90;;;3.15;;
18983;SDS011;9626;52.552;13.436;2023-06-24T15:00:05;4.15;;;3.40;;
18983;SDS011;9626;52.552;13.436;2023-06-24T15:02:33;5.07;;;3.20;;
18983;SDS011;9626;52.552;13.436;2023-06-24T15:04:59;5.07;;;3.83;;
18983;SDS011;9626;52.552;13.436;2023-06-24T15:07:25;5.88;;;3.55;;
18983;SDS011;9626;52.552;13.436;2023-06-24T15:09:51;4.88;;;3.83;;